createdAt,value
2023-07-25T00:00:28.010Z,15.53
2023-07-25T00:01:19.794Z,15.49
2023-07-25T00:02:11.349Z,15.48
2023-07-25T00:03:03.236Z,15.43
2023-07-25T00:03:54.820Z,15.39
2023-07-25T00:04:46.885Z,15.34
2023-07-25T00:05:38.476Z,15.33
2023-07-25T00:06:31.653Z,15.36
2023-07-25T00:07:23.228Z,15.33
2023-07-25T00:08:14.787Z,15.28
2023-07-25T00:09:07.275Z,15.28
2023-07-25T00:09:59.384Z,15.27
2023-07-25T00:10:51.105Z,15.21
2023-07-25T00:11:45.940Z,15.19
2023-07-25T00:12:38.679Z,15.20
2023-07-25T00:13:30.494Z,15.19
2023-07-25T00:14:22.393Z,15.20
2023-07-25T00:15:14.970Z,15.19
2023-07-25T00:16:06.746Z,15.19
2023-07-25T00:16:58.242Z,15.19
2023-07-25T00:17:50.553Z,15.19
2023-07-25T00:18:42.081Z,15.20
2023-07-25T00:19:33.553Z,15.18
2023-07-25T00:20:25.146Z,15.24
2023-07-25T00:21:16.744Z,15.24
2023-07-25T00:22:08.329Z,15.26
2023-07-25T00:23:00.384Z,15.23
2023-07-25T00:23:52.544Z,15.22
2023-07-25T00:24:44.102Z,15.25
2023-07-25T00:25:35.975Z,15.29
2023-07-25T00:26:27.653Z,15.31
2023-07-25T00:27:19.166Z,15.29
2023-07-25T00:28:10.923Z,15.26
2023-07-25T00:29:02.593Z,15.23
2023-07-25T00:29:54.123Z,15.25
2023-07-25T00:30:45.845Z,15.22
2023-07-25T00:31:37.340Z,15.20
2023-07-25T00:32:29.085Z,15.19
2023-07-25T00:33:20.646Z,15.16
2023-07-25T00:34:12.437Z,15.16
2023-07-25T00:35:04.519Z,15.17
2023-07-25T00:35:56.010Z,15.14
2023-07-25T00:36:47.529Z,15.14
2023-07-25T00:37:39.169Z,15.10
2023-07-25T00:38:30.648Z,15.07
2023-07-25T00:39:22.115Z,15.09
2023-07-25T00:40:14.522Z,15.08
2023-07-25T00:41:06.038Z,15.09
2023-07-25T00:41:57.599Z,15.08
2023-07-25T00:42:57.220Z,15.08
2023-07-25T00:43:48.929Z,15.08
2023-07-25T00:44:40.373Z,15.08
2023-07-25T00:45:31.967Z,15.09
2023-07-25T00:46:24.882Z,15.11
2023-07-25T00:47:19.629Z,15.06
2023-07-25T00:48:11.252Z,15.09
2023-07-25T00:49:02.967Z,15.09
2023-07-25T00:49:55.461Z,15.09
2023-07-25T00:50:47.401Z,15.09
2023-07-25T00:51:38.881Z,15.11
2023-07-25T00:52:31.561Z,15.09
2023-07-25T00:53:24.787Z,15.13
2023-07-25T00:54:16.365Z,15.15
2023-07-25T00:55:08.255Z,15.15
2023-07-25T00:56:02.304Z,15.15
2023-07-25T00:56:55.067Z,15.17
2023-07-25T00:57:46.668Z,15.16
2023-07-25T00:58:38.378Z,15.16
2023-07-25T00:59:29.891Z,15.13
2023-07-25T01:00:21.802Z,15.14
2023-07-25T01:01:14.289Z,15.13
2023-07-25T01:02:06.137Z,15.16
2023-07-25T01:02:57.714Z,15.14
2023-07-25T01:03:50.132Z,15.15
2023-07-25T01:04:43.770Z,15.14
2023-07-25T01:05:45.213Z,15.16
2023-07-25T01:06:38.279Z,15.14
2023-07-25T01:07:31.276Z,15.12
2023-07-25T01:08:22.783Z,15.15
2023-07-25T01:09:15.849Z,15.14
2023-07-25T01:10:08.259Z,15.13
2023-07-25T01:10:59.797Z,15.14
2023-07-25T01:11:52.293Z,15.14
2023-07-25T01:12:43.785Z,15.16
2023-07-25T01:13:35.386Z,15.14
2023-07-25T01:14:28.763Z,15.16
2023-07-25T01:15:20.409Z,15.15
2023-07-25T01:16:15.308Z,15.15
2023-07-25T01:17:18.335Z,15.15
2023-07-25T01:18:11.102Z,15.16
2023-07-25T01:19:03.939Z,15.14
2023-07-25T01:19:56.048Z,15.15
2023-07-25T01:20:48.707Z,15.15
2023-07-25T01:21:40.639Z,15.15
2023-07-25T01:22:36.525Z,15.10
2023-07-25T01:23:29.935Z,15.08
2023-07-25T01:24:21.614Z,15.09
2023-07-25T01:25:14.872Z,15.07
2023-07-25T01:26:06.690Z,15.08
2023-07-25T01:26:58.227Z,15.05
2023-07-25T01:27:49.868Z,15.03
2023-07-25T01:28:41.529Z,15.05
2023-07-25T01:29:32.977Z,15.05
2023-07-25T01:30:24.600Z,15.07
2023-07-25T01:31:16.158Z,15.06
2023-07-25T01:32:08.348Z,15.06
2023-07-25T01:33:00.312Z,15.06
2023-07-25T01:33:52.431Z,15.03
2023-07-25T01:34:44.092Z,15.04
2023-07-25T01:35:35.552Z,15.04
2023-07-25T01:36:27.018Z,15.03
2023-07-25T01:37:18.517Z,15.03
2023-07-25T01:38:10.060Z,15.00
2023-07-25T01:39:01.575Z,14.98
2023-07-25T01:39:53.078Z,14.98
2023-07-25T01:40:44.673Z,14.99
2023-07-25T01:41:36.273Z,14.98
2023-07-25T01:42:27.949Z,14.99
2023-07-25T01:43:19.698Z,14.99
2023-07-25T01:44:12.088Z,14.98
2023-07-25T01:45:04.061Z,14.96
2023-07-25T01:45:56.149Z,14.94
2023-07-25T01:46:47.686Z,14.91
2023-07-25T01:47:39.258Z,14.84
2023-07-25T01:48:30.912Z,14.81
2023-07-25T01:49:22.416Z,14.77
2023-07-25T01:50:14.056Z,14.76
2023-07-25T01:51:05.810Z,14.75
2023-07-25T01:51:57.257Z,14.71
2023-07-25T01:52:49.620Z,14.69
2023-07-25T01:53:41.138Z,14.64
2023-07-25T01:54:32.841Z,14.60
2023-07-25T01:55:24.303Z,14.58
2023-07-25T01:56:17.551Z,14.57
2023-07-25T01:57:09.357Z,14.55
2023-07-25T01:58:00.876Z,14.53
2023-07-25T01:58:52.537Z,14.52
2023-07-25T01:59:44.095Z,14.48
2023-07-25T02:00:35.668Z,14.47
2023-07-25T02:01:27.195Z,14.44
2023-07-25T02:02:18.714Z,14.45
2023-07-25T02:03:14.309Z,14.43
2023-07-25T02:04:05.813Z,14.41
2023-07-25T02:04:57.580Z,14.40
2023-07-25T02:05:49.060Z,14.37
2023-07-25T02:06:40.696Z,14.37
2023-07-25T02:07:32.452Z,14.37
2023-07-25T02:08:24.114Z,14.36
2023-07-25T02:09:16.030Z,14.37
2023-07-25T02:10:08.147Z,14.36
2023-07-25T02:10:59.678Z,14.35
2023-07-25T02:11:51.201Z,14.36
2023-07-25T02:12:42.766Z,14.34
2023-07-25T02:13:34.259Z,14.35
2023-07-25T02:14:25.803Z,14.31
2023-07-25T02:15:18.297Z,14.31
2023-07-25T02:16:09.783Z,14.33
2023-07-25T02:17:01.310Z,14.31
2023-07-25T02:17:53.115Z,14.31
2023-07-25T02:18:44.690Z,14.30
2023-07-25T02:19:36.914Z,14.30
2023-07-25T02:20:31.075Z,14.32
2023-07-25T02:21:22.745Z,14.32
2023-07-25T02:22:14.284Z,14.32
2023-07-25T02:23:05.831Z,14.33
2023-07-25T02:23:57.820Z,14.30
2023-07-25T02:24:49.339Z,14.27
2023-07-25T02:25:41.352Z,14.23
2023-07-25T02:26:32.937Z,14.25
2023-07-25T02:27:24.422Z,14.21
2023-07-25T02:28:16.146Z,14.18
2023-07-25T02:29:07.665Z,14.19
2023-07-25T02:30:00.526Z,14.19
2023-07-25T02:30:52.163Z,14.16
2023-07-25T02:31:44.023Z,14.12
2023-07-25T02:32:35.855Z,14.13
2023-07-25T02:33:27.556Z,14.09
2023-07-25T02:34:19.030Z,14.09
2023-07-25T02:35:10.504Z,14.08
2023-07-25T02:36:02.160Z,14.08
2023-07-25T02:36:53.594Z,14.04
2023-07-25T02:37:47.582Z,14.03
2023-07-25T02:38:39.110Z,14.00
2023-07-25T02:39:30.818Z,13.98
2023-07-25T02:40:22.300Z,13.95
2023-07-25T02:41:14.834Z,13.90
2023-07-25T02:42:06.755Z,13.91
2023-07-25T02:42:58.228Z,13.91
2023-07-25T02:43:49.773Z,13.90
2023-07-25T02:44:41.276Z,13.87
2023-07-25T02:45:32.743Z,13.88
2023-07-25T02:46:24.486Z,13.87
2023-07-25T02:47:15.997Z,13.85
2023-07-25T02:48:07.446Z,13.82
2023-07-25T02:48:58.972Z,13.81
2023-07-25T02:49:50.467Z,13.81
2023-07-25T02:50:41.998Z,13.78
2023-07-25T02:51:33.769Z,13.79
2023-07-25T02:52:25.648Z,13.77
2023-07-25T02:53:17.097Z,13.78
2023-07-25T02:54:08.561Z,13.75
2023-07-25T02:55:00.132Z,13.71
2023-07-25T02:55:51.877Z,13.70
2023-07-25T02:56:43.307Z,13.69
2023-07-25T02:57:34.806Z,13.67
2023-07-25T02:58:26.286Z,13.65
2023-07-25T02:59:19.194Z,13.58
2023-07-25T03:00:11.433Z,13.61
2023-07-25T03:01:04.147Z,13.62
2023-07-25T03:01:55.768Z,13.62
2023-07-25T03:02:48.791Z,13.60
2023-07-25T03:03:40.618Z,13.62
2023-07-25T03:04:32.147Z,13.62
2023-07-25T03:05:27.343Z,13.63
2023-07-25T03:06:19.069Z,13.66
2023-07-25T03:07:10.721Z,13.69
2023-07-25T03:08:02.612Z,13.69
2023-07-25T03:08:54.059Z,13.70
2023-07-25T03:09:45.537Z,13.75
2023-07-25T03:10:37.050Z,13.72
2023-07-25T03:11:28.535Z,13.76
2023-07-25T03:12:20.201Z,13.79
2023-07-25T03:13:11.908Z,13.77
2023-07-25T03:14:03.643Z,13.81
2023-07-25T03:14:55.068Z,13.84
2023-07-25T03:15:46.716Z,13.84
2023-07-25T03:16:38.433Z,13.84
2023-07-25T03:17:33.192Z,13.83
2023-07-25T03:18:24.846Z,13.87
2023-07-25T03:19:18.020Z,13.85
2023-07-25T03:20:09.772Z,13.86
2023-07-25T03:21:01.187Z,13.85
2023-07-25T03:21:52.807Z,13.85
2023-07-25T03:22:44.257Z,13.86
2023-07-25T03:23:36.190Z,13.82
2023-07-25T03:24:28.005Z,13.78
2023-07-25T03:25:19.613Z,13.74
2023-07-25T03:26:11.119Z,13.72
2023-07-25T03:27:02.965Z,13.73
2023-07-25T03:27:54.506Z,13.72
2023-07-25T03:28:46.223Z,13.69
2023-07-25T03:29:37.935Z,13.62
2023-07-25T03:30:30.025Z,13.61
2023-07-25T03:31:22.152Z,13.61
2023-07-25T03:32:13.756Z,13.59
2023-07-25T03:33:05.277Z,13.57
2023-07-25T03:33:56.973Z,13.57
2023-07-25T03:34:48.571Z,13.57
2023-07-25T03:35:40.133Z,13.52
2023-07-25T03:36:31.609Z,13.53
2023-07-25T03:37:23.128Z,13.52
2023-07-25T03:38:15.736Z,13.54
2023-07-25T03:39:07.171Z,13.54
2023-07-25T03:39:58.632Z,13.53
2023-07-25T03:40:50.151Z,13.54
2023-07-25T03:41:41.850Z,13.56
2023-07-25T03:42:33.330Z,13.56
2023-07-25T03:43:26.012Z,13.54
2023-07-25T03:44:21.330Z,13.55
2023-07-25T03:45:12.845Z,13.54
2023-07-25T03:46:04.698Z,13.52
2023-07-25T03:46:56.554Z,13.50
2023-07-25T03:47:48.332Z,13.48
2023-07-25T03:48:40.394Z,13.44
2023-07-25T03:49:31.918Z,13.38
2023-07-25T03:50:23.416Z,13.35
2023-07-25T03:51:15.066Z,13.34
2023-07-25T03:52:06.824Z,13.31
2023-07-25T03:52:59.704Z,13.32
2023-07-25T03:53:51.159Z,13.28
2023-07-25T03:54:42.666Z,13.29
2023-07-25T03:55:34.184Z,13.27
2023-07-25T03:56:25.752Z,13.26
2023-07-25T03:57:17.330Z,13.24
2023-07-25T03:58:08.917Z,13.22
2023-07-25T03:59:01.321Z,13.23
2023-07-25T03:59:52.761Z,13.18
2023-07-25T04:00:44.435Z,13.19
2023-07-25T04:01:36.013Z,13.17
2023-07-25T04:02:27.810Z,13.18
2023-07-25T04:03:19.496Z,13.16
2023-07-25T04:04:11.280Z,13.10
2023-07-25T04:05:03.158Z,13.09
2023-07-25T04:05:56.392Z,13.10
2023-07-25T04:06:47.860Z,13.10
2023-07-25T04:07:39.432Z,13.09
2023-07-25T04:08:30.858Z,13.07
2023-07-25T04:09:22.313Z,13.07
2023-07-25T04:10:13.864Z,13.04
2023-07-25T04:11:05.349Z,12.99
2023-07-25T04:11:56.983Z,13.00
2023-07-25T04:12:48.666Z,12.98
2023-07-25T04:13:40.915Z,12.96
2023-07-25T04:14:32.401Z,12.92
2023-07-25T04:15:23.891Z,12.90
2023-07-25T04:16:15.471Z,12.84
2023-07-25T04:17:07.536Z,12.86
2023-07-25T04:17:59.060Z,12.83
2023-07-25T04:18:50.983Z,12.76
2023-07-25T04:19:42.707Z,12.78
2023-07-25T04:20:34.428Z,12.76
2023-07-25T04:21:25.980Z,12.74
2023-07-25T04:22:17.510Z,12.75
2023-07-25T04:23:11.140Z,12.73
2023-07-25T04:24:02.790Z,12.72
2023-07-25T04:24:54.531Z,12.71
2023-07-25T04:25:46.365Z,12.68
2023-07-25T04:26:37.891Z,12.68
2023-07-25T04:27:31.981Z,12.69
2023-07-25T04:28:23.474Z,12.66
2023-07-25T04:29:14.975Z,12.64
2023-07-25T04:30:07.008Z,12.63
2023-07-25T04:30:58.526Z,12.62
2023-07-25T04:31:50.019Z,12.63
2023-07-25T04:32:41.567Z,12.63
2023-07-25T04:33:33.070Z,12.64
2023-07-25T04:34:25.905Z,12.62
2023-07-25T04:35:17.561Z,12.61
2023-07-25T04:36:09.615Z,12.59
2023-07-25T04:37:01.519Z,12.59
2023-07-25T04:37:53.068Z,12.62
2023-07-25T04:38:44.489Z,12.60
2023-07-25T04:39:37.265Z,12.58
2023-07-25T04:40:30.062Z,12.57
2023-07-25T04:41:21.666Z,12.57
2023-07-25T04:42:13.132Z,12.66
2023-07-25T04:43:04.996Z,12.67
2023-07-25T04:43:56.499Z,12.67
2023-07-25T04:44:48.017Z,12.70
2023-07-25T04:45:39.501Z,12.69
2023-07-25T04:46:31.381Z,12.69
2023-07-25T04:47:23.123Z,12.68
2023-07-25T04:48:14.667Z,12.72
2023-07-25T04:49:07.866Z,12.72
2023-07-25T04:49:59.622Z,12.73
2023-07-25T04:50:51.174Z,12.71
2023-07-25T04:51:44.718Z,12.74
2023-07-25T04:52:36.368Z,12.75
2023-07-25T04:53:27.922Z,12.76
2023-07-25T04:54:19.971Z,12.82
2023-07-25T04:55:11.668Z,12.85
2023-07-25T04:56:03.254Z,12.88
2023-07-25T04:56:54.793Z,12.86
2023-07-25T04:57:46.408Z,12.88
2023-07-25T04:58:42.160Z,12.93
2023-07-25T04:59:33.920Z,12.98
2023-07-25T05:00:25.500Z,13.03
2023-07-25T05:01:16.997Z,13.10
2023-07-25T05:02:08.463Z,13.19
2023-07-25T05:03:00.068Z,13.24
2023-07-25T05:03:51.685Z,13.29
2023-07-25T05:04:43.258Z,13.35
2023-07-25T05:05:34.727Z,13.40
2023-07-25T05:06:26.224Z,13.43
2023-07-25T05:07:18.490Z,13.48
2023-07-25T05:08:10.250Z,13.51
2023-07-25T05:09:01.709Z,13.54
2023-07-25T05:09:53.158Z,13.51
2023-07-25T05:10:44.885Z,13.50
2023-07-25T05:11:36.307Z,13.50
2023-07-25T05:12:27.773Z,13.51
2023-07-25T05:13:19.656Z,13.52
2023-07-25T05:14:11.239Z,13.52
2023-07-25T05:15:02.892Z,13.57
2023-07-25T05:15:54.458Z,13.58
2023-07-25T05:16:45.950Z,13.65
2023-07-25T05:17:37.469Z,13.71
2023-07-25T05:18:28.912Z,13.76
2023-07-25T05:19:20.429Z,13.84
2023-07-25T05:20:11.956Z,13.92
2023-07-25T05:21:03.657Z,14.02
2023-07-25T05:21:55.155Z,14.11
2023-07-25T05:22:46.793Z,14.21
2023-07-25T05:23:38.460Z,14.28
2023-07-25T05:24:29.967Z,14.35
2023-07-25T05:25:21.404Z,14.45
2023-07-25T05:26:12.947Z,14.55
2023-07-25T05:27:04.910Z,14.59
2023-07-25T05:27:56.619Z,14.68
2023-07-25T05:28:48.117Z,14.73
2023-07-25T05:29:39.772Z,14.69
2023-07-25T05:30:32.557Z,14.62
2023-07-25T05:31:24.161Z,14.67
2023-07-25T05:32:15.633Z,14.75
2023-07-25T05:33:08.686Z,14.77
2023-07-25T05:34:00.225Z,14.73
2023-07-25T05:34:51.716Z,14.76
2023-07-25T05:35:43.413Z,14.73
2023-07-25T05:36:35.394Z,14.70
2023-07-25T05:37:37.974Z,14.61
2023-07-25T05:38:29.712Z,14.65
2023-07-25T05:39:21.170Z,14.68
2023-07-25T05:40:12.936Z,14.65
2023-07-25T05:41:04.367Z,14.62
2023-07-25T05:41:55.928Z,14.64
2023-07-25T05:42:48.438Z,14.66
2023-07-25T05:43:39.896Z,14.68
2023-07-25T05:44:31.748Z,14.72
2023-07-25T05:45:23.478Z,14.72
2023-07-25T05:46:15.026Z,14.73
2023-07-25T05:47:06.835Z,14.70
2023-07-25T05:47:58.358Z,14.67
2023-07-25T05:48:50.622Z,14.67
2023-07-25T05:49:42.116Z,14.73
2023-07-25T05:50:33.808Z,14.72
2023-07-25T05:51:25.282Z,14.73
2023-07-25T05:52:18.065Z,14.74
2023-07-25T05:53:09.522Z,14.75
2023-07-25T05:54:00.988Z,14.76
2023-07-25T05:54:53.937Z,14.81
2023-07-25T05:55:46.968Z,14.84
2023-07-25T05:56:38.430Z,14.83
2023-07-25T05:57:29.901Z,14.83
2023-07-25T05:58:21.409Z,14.85
2023-07-25T05:59:13.111Z,14.90
2023-07-25T06:00:05.323Z,14.86
2023-07-25T06:00:57.828Z,14.87
2023-07-25T06:01:49.461Z,14.89
2023-07-25T06:02:40.972Z,14.93
2023-07-25T06:03:32.837Z,14.98
2023-07-25T06:04:24.366Z,14.95
2023-07-25T06:05:16.072Z,14.97
2023-07-25T06:06:07.557Z,14.97
2023-07-25T06:06:58.969Z,14.99
2023-07-25T06:07:50.622Z,15.03
2023-07-25T06:08:42.110Z,15.09
2023-07-25T06:09:33.584Z,15.11
2023-07-25T06:10:25.122Z,15.14
2023-07-25T06:11:22.096Z,15.18
2023-07-25T06:12:15.079Z,15.16
2023-07-25T06:13:08.192Z,15.23
2023-07-25T06:14:00.396Z,15.23
2023-07-25T06:14:51.998Z,15.29
2023-07-25T06:15:43.731Z,15.30
2023-07-25T06:16:35.272Z,15.29
2023-07-25T06:17:26.778Z,15.31
2023-07-25T06:18:19.770Z,15.30
2023-07-25T06:19:11.475Z,15.31
2023-07-25T06:20:03.127Z,15.28
2023-07-25T06:20:54.697Z,15.31
2023-07-25T06:21:46.607Z,15.32
2023-07-25T06:22:38.560Z,15.29
2023-07-25T06:23:30.076Z,15.26
2023-07-25T06:24:21.787Z,15.26
2023-07-25T06:25:15.778Z,15.26
2023-07-25T06:26:07.381Z,15.23
2023-07-25T06:26:59.135Z,15.27
2023-07-25T06:27:50.699Z,15.28
2023-07-25T06:28:42.124Z,15.29
2023-07-25T06:29:34.210Z,15.28
2023-07-25T06:30:25.708Z,15.27
2023-07-25T06:31:17.268Z,15.29
2023-07-25T06:32:09.071Z,15.30
2023-07-25T06:33:00.817Z,15.31
2023-07-25T06:33:52.267Z,15.32
2023-07-25T06:34:43.669Z,15.37
2023-07-25T06:35:35.227Z,15.33
2023-07-25T06:36:26.665Z,15.31
2023-07-25T06:37:18.813Z,15.30
2023-07-25T06:38:11.153Z,15.28
2023-07-25T06:39:03.801Z,15.29
2023-07-25T06:39:56.555Z,15.36
2023-07-25T06:40:48.026Z,15.34
2023-07-25T06:41:39.506Z,15.35
2023-07-25T06:42:32.738Z,15.39
2023-07-25T06:43:27.700Z,15.46
2023-07-25T06:44:20.878Z,15.37
2023-07-25T06:45:12.438Z,15.42
2023-07-25T06:46:04.174Z,15.45
2023-07-25T06:46:58.412Z,15.49
2023-07-25T06:47:56.066Z,15.53
2023-07-25T06:48:47.521Z,15.55
2023-07-25T06:49:39.203Z,15.61
2023-07-25T06:50:33.836Z,15.55
2023-07-25T06:51:25.390Z,15.55
2023-07-25T06:52:16.868Z,15.56
2023-07-25T06:53:08.379Z,15.63
2023-07-25T06:53:59.803Z,15.61
2023-07-25T06:54:51.371Z,15.61
2023-07-25T06:55:42.849Z,15.64
2023-07-25T06:56:34.265Z,15.58
2023-07-25T06:57:25.845Z,15.59
2023-07-25T06:58:17.323Z,15.60
2023-07-25T06:59:08.731Z,15.58
2023-07-25T07:00:01.445Z,15.52
2023-07-25T07:00:53.074Z,15.56
2023-07-25T07:01:44.937Z,15.55
2023-07-25T07:02:36.607Z,15.49
2023-07-25T07:03:28.250Z,15.47
2023-07-25T07:04:20.143Z,15.53
2023-07-25T07:05:27.755Z,15.58
2023-07-25T07:06:22.122Z,15.47
2023-07-25T07:07:13.666Z,15.46
2023-07-25T07:08:05.874Z,15.52
2023-07-25T07:08:57.453Z,15.53
2023-07-25T07:09:49.872Z,15.58
2023-07-25T07:10:41.589Z,15.55
2023-07-25T07:11:34.839Z,15.58
2023-07-25T07:12:27.212Z,15.67
2023-07-25T07:13:18.780Z,15.70
2023-07-25T07:14:10.622Z,15.65
2023-07-25T07:15:02.197Z,15.74
2023-07-25T07:15:53.704Z,15.83
2023-07-25T07:16:45.314Z,15.86
2023-07-25T07:17:36.888Z,15.83
2023-07-25T07:18:28.313Z,15.89
2023-07-25T07:19:19.986Z,15.93
2023-07-25T07:20:11.928Z,15.91
2023-07-25T07:21:03.443Z,15.87
2023-07-25T07:21:55.015Z,15.98
2023-07-25T07:22:46.974Z,15.92
2023-07-25T07:23:38.492Z,15.90
2023-07-25T07:24:30.134Z,16.05
2023-07-25T07:25:21.785Z,16.00
2023-07-25T07:26:13.352Z,16.01
2023-07-25T07:27:05.089Z,16.07
2023-07-25T07:27:56.734Z,16.13
2023-07-25T07:28:48.142Z,16.15
2023-07-25T07:29:39.537Z,16.15
2023-07-25T07:30:31.091Z,16.24
2023-07-25T07:31:24.701Z,16.29
2023-07-25T07:32:16.263Z,16.34
2023-07-25T07:33:07.924Z,16.48
2023-07-25T07:34:18.928Z,16.51
2023-07-25T07:35:10.617Z,16.53
2023-07-25T07:36:02.373Z,16.57
2023-07-25T07:36:53.832Z,16.60
2023-07-25T07:37:45.270Z,16.71
2023-07-25T07:38:36.735Z,16.70
2023-07-25T07:39:28.239Z,16.79
2023-07-25T07:40:19.791Z,16.87
2023-07-25T07:41:11.208Z,16.74
2023-07-25T07:42:03.071Z,16.72
2023-07-25T07:42:54.768Z,16.69
2023-07-25T07:43:46.417Z,16.71
2023-07-25T07:44:38.175Z,16.74
2023-07-25T07:45:31.478Z,16.77
2023-07-25T07:46:23.055Z,16.82
2023-07-25T07:47:14.545Z,16.62
2023-07-25T07:48:06.200Z,16.68
2023-07-25T07:48:58.857Z,16.74
2023-07-25T07:49:50.351Z,16.88
2023-07-25T07:50:45.179Z,16.88
2023-07-25T07:51:36.730Z,16.83
2023-07-25T07:52:41.679Z,16.78
2023-07-25T07:53:34.073Z,16.72
2023-07-25T07:54:25.673Z,16.82
2023-07-25T07:55:17.798Z,16.82
2023-07-25T07:56:09.381Z,16.85
2023-07-25T07:57:01.145Z,16.80
2023-07-25T07:57:53.937Z,16.73
2023-07-25T07:58:46.180Z,16.85
2023-07-25T07:59:38.735Z,16.90
2023-07-25T08:00:32.305Z,16.87
2023-07-25T08:01:24.204Z,16.88
2023-07-25T08:02:15.692Z,16.98
2023-07-25T08:03:07.291Z,16.93
2023-07-25T08:03:58.981Z,16.98
2023-07-25T08:04:50.710Z,17.00
2023-07-25T08:05:44.258Z,16.93
2023-07-25T08:06:35.746Z,16.89
2023-07-25T08:07:27.223Z,16.98
2023-07-25T08:08:18.814Z,17.09
2023-07-25T08:09:10.436Z,17.27
2023-07-25T08:10:02.147Z,17.32
2023-07-25T08:10:54.772Z,17.31
2023-07-25T08:11:46.350Z,17.33
2023-07-25T08:12:38.511Z,17.23
2023-07-25T08:13:30.466Z,17.28
2023-07-25T08:14:22.030Z,17.35
2023-07-25T08:15:13.554Z,17.29
2023-07-25T08:16:06.039Z,17.24
2023-07-25T08:16:57.883Z,17.28
2023-07-25T08:17:49.710Z,17.36
2023-07-25T08:18:41.200Z,17.46
2023-07-25T08:19:34.106Z,17.34
2023-07-25T08:20:25.832Z,17.33
2023-07-25T08:21:17.580Z,17.24
2023-07-25T08:22:11.565Z,17.31
2023-07-25T08:23:03.066Z,17.33
2023-07-25T08:23:54.690Z,17.42
2023-07-25T08:24:46.482Z,17.50
2023-07-25T08:25:41.840Z,17.55
2023-07-25T08:26:33.574Z,17.68
2023-07-25T08:27:25.063Z,17.69
2023-07-25T08:28:17.316Z,17.71
2023-07-25T08:29:09.089Z,17.81
2023-07-25T08:30:00.638Z,17.92
2023-07-25T08:31:03.162Z,17.92
2023-07-25T08:31:55.237Z,18.06
2023-07-25T08:32:46.891Z,17.98
2023-07-25T08:33:38.501Z,17.96
2023-07-25T08:34:30.030Z,17.86
2023-07-25T08:35:21.803Z,17.85
2023-07-25T08:36:13.430Z,17.87
2023-07-25T08:37:08.144Z,17.97
2023-07-25T08:37:59.726Z,17.99
2023-07-25T08:38:51.530Z,17.96
2023-07-25T08:39:43.040Z,18.00
2023-07-25T08:40:34.819Z,17.85
2023-07-25T08:41:31.553Z,17.83
2023-07-25T08:42:26.841Z,17.92
2023-07-25T08:43:22.825Z,17.80
2023-07-25T08:44:17.888Z,17.77
2023-07-25T08:45:10.142Z,17.68
2023-07-25T08:46:09.034Z,17.61
2023-07-25T08:47:07.301Z,17.63
2023-07-25T08:48:05.673Z,17.78
2023-07-25T08:49:02.546Z,17.87
2023-07-25T08:49:59.129Z,17.70
2023-07-25T08:50:53.857Z,17.72
2023-07-25T08:51:46.195Z,17.79
2023-07-25T08:52:41.892Z,17.83
2023-07-25T08:53:34.558Z,17.91
2023-07-25T08:54:31.962Z,18.03
2023-07-25T08:55:23.619Z,18.08
2023-07-25T08:56:16.150Z,18.00
2023-07-25T08:57:08.800Z,18.00
2023-07-25T08:58:01.371Z,17.89
2023-07-25T08:58:55.754Z,17.87
2023-07-25T08:59:51.146Z,17.86
2023-07-25T09:00:44.425Z,17.78
2023-07-25T09:01:36.177Z,17.81
2023-07-25T09:02:29.121Z,17.80
2023-07-25T09:03:21.279Z,17.84
2023-07-25T09:04:14.850Z,17.84
2023-07-25T09:05:07.484Z,17.84
2023-07-25T09:06:01.439Z,17.90
2023-07-25T09:06:53.775Z,17.75
2023-07-25T09:07:45.265Z,17.67
2023-07-25T09:08:36.756Z,17.70
2023-07-25T09:09:28.292Z,17.69
2023-07-25T09:10:19.842Z,17.66
2023-07-25T09:11:14.265Z,17.74
2023-07-25T09:12:08.631Z,17.71
2023-07-25T09:13:00.116Z,17.63
2023-07-25T09:13:51.637Z,17.62
2023-07-25T09:14:44.388Z,17.71
2023-07-25T09:15:35.851Z,17.65
2023-07-25T09:16:27.784Z,17.61
2023-07-25T09:17:21.386Z,17.56
2023-07-25T09:18:13.116Z,17.51
2023-07-25T09:19:04.694Z,17.54
2023-07-25T09:19:57.399Z,17.46
2023-07-25T09:20:49.766Z,17.38
2023-07-25T09:21:54.791Z,17.55
2023-07-25T09:22:49.812Z,17.44
2023-07-25T09:23:54.699Z,17.38
2023-07-25T09:24:46.186Z,17.37
2023-07-25T09:25:38.123Z,17.35
2023-07-25T09:26:31.770Z,17.22
2023-07-25T09:27:23.613Z,17.16
2023-07-25T09:28:15.376Z,17.21
2023-07-25T09:29:06.802Z,17.30
2023-07-25T09:29:58.324Z,17.29
2023-07-25T09:30:49.781Z,17.31
2023-07-25T09:31:46.565Z,17.35
2023-07-25T09:32:39.353Z,17.31
2023-07-25T09:33:31.676Z,17.43
2023-07-25T09:34:27.440Z,17.42
2023-07-25T09:35:18.931Z,17.51
2023-07-25T09:36:10.368Z,17.59
2023-07-25T09:37:05.357Z,17.55
2023-07-25T09:37:57.472Z,17.53
2023-07-25T09:38:56.142Z,17.54
2023-07-25T09:39:48.438Z,17.55
2023-07-25T09:40:41.606Z,17.47
2023-07-25T09:41:36.182Z,17.62
2023-07-25T09:42:27.702Z,17.67
2023-07-25T09:43:28.995Z,17.66
2023-07-25T09:44:20.460Z,17.77
2023-07-25T09:45:13.334Z,17.92
2023-07-25T09:46:04.845Z,17.98
2023-07-25T09:46:58.179Z,18.07
2023-07-25T09:47:53.285Z,18.01
2023-07-25T09:48:48.115Z,17.99
2023-07-25T09:49:39.784Z,18.13
2023-07-25T09:50:34.726Z,18.24
2023-07-25T09:51:26.254Z,18.19
2023-07-25T09:52:18.278Z,18.21
2023-07-25T09:53:17.628Z,18.41
2023-07-25T09:54:09.378Z,18.57
2023-07-25T09:55:00.983Z,18.63
2023-07-25T09:55:53.192Z,18.46
2023-07-25T09:56:44.943Z,18.56
2023-07-25T09:57:36.803Z,18.71
2023-07-25T09:58:29.929Z,18.88
2023-07-25T09:59:23.300Z,18.91
2023-07-25T10:00:15.154Z,18.94
2023-07-25T10:01:10.855Z,19.09
2023-07-25T10:02:02.826Z,19.12
2023-07-25T10:02:56.142Z,19.24
2023-07-25T10:03:48.415Z,19.20
2023-07-25T10:04:40.245Z,19.24
2023-07-25T10:05:31.793Z,19.26
2023-07-25T10:06:24.686Z,19.29
2023-07-25T10:07:16.652Z,19.39
2023-07-25T10:08:09.692Z,19.24
2023-07-25T10:09:02.596Z,19.23
2023-07-25T10:09:57.608Z,19.25
2023-07-25T10:10:49.341Z,19.17
2023-07-25T10:11:41.446Z,19.12
2023-07-25T10:12:33.019Z,19.03
2023-07-25T10:13:24.875Z,19.02
2023-07-25T10:14:16.405Z,18.98
2023-07-25T10:15:09.343Z,19.05
2023-07-25T10:16:04.391Z,19.05
2023-07-25T10:16:58.612Z,19.07
2023-07-25T10:17:50.469Z,19.07
2023-07-25T10:18:42.490Z,18.94
2023-07-25T10:19:49.991Z,18.79
2023-07-25T10:20:41.766Z,18.50
2023-07-25T10:21:51.485Z,18.33
2023-07-25T10:22:43.552Z,18.33
2023-07-25T10:23:36.609Z,18.32
2023-07-25T10:24:34.766Z,18.36
2023-07-25T10:25:29.807Z,18.35
2023-07-25T10:26:21.743Z,18.23
2023-07-25T10:27:13.820Z,18.38
2023-07-25T10:28:05.863Z,18.34
2023-07-25T10:29:00.699Z,18.28
2023-07-25T10:29:54.885Z,18.23
2023-07-25T10:30:47.498Z,18.32
2023-07-25T10:31:51.770Z,18.20
2023-07-25T10:32:45.751Z,18.29
2023-07-25T10:33:39.338Z,18.42
2023-07-25T10:35:15.866Z,18.56
2023-07-25T10:36:23.587Z,18.38
2023-07-25T10:37:26.043Z,18.28
2023-07-25T10:38:22.627Z,18.32
2023-07-25T10:39:25.842Z,18.42
2023-07-25T10:40:24.288Z,18.36
2023-07-25T10:41:19.736Z,18.22
2023-07-25T10:42:17.357Z,18.19
2023-07-25T10:43:08.863Z,18.15
2023-07-25T10:44:03.603Z,18.32
2023-07-25T10:44:55.534Z,18.33
2023-07-25T10:45:50.099Z,18.42
2023-07-25T10:46:41.589Z,18.41
2023-07-25T10:47:47.005Z,18.43
2023-07-25T10:48:46.156Z,18.54
2023-07-25T10:49:54.998Z,18.65
2023-07-25T10:50:46.580Z,18.70
2023-07-25T10:51:49.920Z,18.88
2023-07-25T10:52:45.981Z,18.65
2023-07-25T10:53:37.620Z,18.52
2023-07-25T10:54:30.260Z,18.71
2023-07-25T10:55:21.792Z,18.80
2023-07-25T10:56:14.576Z,18.76
2023-07-25T10:57:15.494Z,18.76
2023-07-25T10:58:10.745Z,18.70
2023-07-25T10:59:12.090Z,18.74
2023-07-25T11:00:08.536Z,18.72
2023-07-25T11:01:02.376Z,18.77
2023-07-25T11:01:53.980Z,19.05
2023-07-25T11:02:45.666Z,19.34
2023-07-25T11:03:38.446Z,19.57
2023-07-25T11:04:33.574Z,19.75
2023-07-25T11:05:25.387Z,19.77
2023-07-25T11:06:17.049Z,19.98
2023-07-25T11:07:10.994Z,20.14
2023-07-25T11:08:03.289Z,20.13
2023-07-25T11:08:55.076Z,20.09
2023-07-25T11:09:46.709Z,20.02
2023-07-25T11:10:38.622Z,20.01
2023-07-25T11:11:30.723Z,20.06
2023-07-25T11:12:23.914Z,19.77
2023-07-25T11:13:15.567Z,19.74
2023-07-25T11:14:08.693Z,19.49
2023-07-25T11:15:01.651Z,19.38
2023-07-25T11:15:53.437Z,19.48
2023-07-25T11:16:49.462Z,19.29
2023-07-25T11:17:42.300Z,19.41